sensor_id;sensor_type;location;lat;lon;timestamp;pressure;altitude;pressure_sealevel;temperature;humidity
73453;BME280;61687;56.232;43.854;2023-11-21T00:00:19;99987.22;;;-4.65;72.89
73453;BME280;61687;56.232;43.854;2023-11-21T00:02:46;99988.84;;;-4.64;72.88
73453;BME280;61687;56.232;43.854;2023-11-21T00:05:14;99989.66;;;-4.68;72.82
73453;BME280;61687;56.232;43.854;2023-11-21T00:07:41;99984.84;;;-4.66;73.07
73453;BME280;61687;56.232;43.854;2023-11-21T00:10:08;99986.97;;;-4.63;72.78
73453;BME280;61687;56.232;43.854;2023-11-21T00:12:36;99988.84;;;-4.69;72.57
73453;BME280;61687;56.232;43.854;2023-11-21T00:15:02;99985.94;;;-4.78;72.56
73453;BME280;61687;56.232;43.854;2023-11-21T00:17:31;99977.66;;;-4.76;72.67
73453;BME280;61687;56.232;43.854;2023-11-21T00:19:57;99972.31;;;-4.76;72.68
73453;BME280;61687;56.232;43.854;2023-11-21T00:22:23;99965.34;;;-4.72;72.88
73453;BME280;61687;56.232;43.854;2023-11-21T00:24:49;99955.69;;;-4.68;72.60
73453;BME280;61687;56.232;43.854;2023-11-21T00:27:15;99952.47;;;-4.65;72.64
73453;BME280;61687;56.232;43.854;2023-11-21T00:29:41;99961.84;;;-4.67;72.66
73453;BME280;61687;56.232;43.854;2023-11-21T00:32:07;99959.72;;;-4.65;72.46
73453;BME280;61687;56.232;43.854;2023-11-21T00:34:33;99961.06;;;-4.73;72.36
73453;BME280;61687;56.232;43.854;2023-11-21T00:37:00;99963.47;;;-4.71;72.47
73453;BME280;61687;56.232;43.854;2023-11-21T00:39:26;99951.97;;;-4.67;72.11
73453;BME280;61687;56.232;43.854;2023-11-21T00:41:52;99946.59;;;-4.67;72.31
73453;BME280;61687;56.232;43.854;2023-11-21T00:44:18;99949.03;;;-4.65;72.35
73453;BME280;61687;56.232;43.854;2023-11-21T00:46:44;99943.13;;;-4.62;72.32
73453;BME280;61687;56.232;43.854;2023-11-21T00:49:10;99928.38;;;-4.60;72.23
73453;BME280;61687;56.232;43.854;2023-11-21T00:51:36;99930.28;;;-4.60;72.04
73453;BME280;61687;56.232;43.854;2023-11-21T00:54:02;99926.00;;;-4.61;71.95
73453;BME280;61687;56.232;43.854;2023-11-21T00:56:28;99935.88;;;-4.62;72.24
73453;BME280;61687;56.232;43.854;2023-11-21T00:58:54;99933.19;;;-4.56;72.09
73453;BME280;61687;56.232;43.854;2023-11-21T01:01:21;99935.63;;;-4.60;72.05
73453;BME280;61687;56.232;43.854;2023-11-21T01:03:50;99935.31;;;-4.53;71.92
73453;BME280;61687;56.232;43.854;2023-11-21T01:06:16;99927.31;;;-4.53;71.78
73453;BME280;61687;56.232;43.854;2023-11-21T01:08:45;99925.66;;;-4.49;71.70
73453;BME280;61687;56.232;43.854;2023-11-21T01:11:12;99923.50;;;-4.47;71.86
73453;BME280;61687;56.232;43.854;2023-11-21T01:13:39;99929.66;;;-4.47;71.63
73453;BME280;61687;56.232;43.854;2023-11-21T01:16:05;99925.66;;;-4.49;71.53
73453;BME280;61687;56.232;43.854;2023-11-21T01:18:32;99922.41;;;-4.41;71.59
73453;BME280;61687;56.232;43.854;2023-11-21T01:20:58;99918.94;;;-4.47;71.40
73453;BME280;61687;56.232;43.854;2023-11-21T01:23:27;99918.44;;;-4.43;71.28
73453;BME280;61687;56.232;43.854;2023-11-21T01:25:56;99918.94;;;-4.41;71.23
73453;BME280;61687;56.232;43.854;2023-11-21T01:28:22;99928.00;;;-4.37;71.20
73453;BME280;61687;56.232;43.854;2023-11-21T01:30:48;99921.84;;;-4.33;71.21
73453;BME280;61687;56.232;43.854;2023-11-21T01:33:15;99927.16;;;-4.27;71.13
73453;BME280;61687;56.232;43.854;2023-11-21T01:35:42;99925.00;;;-4.25;70.94
73453;BME280;61687;56.232;43.854;2023-11-21T01:38:08;99928.22;;;-4.28;70.72
73453;BME280;61687;56.232;43.854;2023-11-21T01:40:35;99922.59;;;-4.27;70.85
73453;BME280;61687;56.232;43.854;2023-11-21T01:43:00;99920.44;;;-4.25;70.67
73453;BME280;61687;56.232;43.854;2023-11-21T01:45:29;99919.91;;;-4.22;70.65
73453;BME280;61687;56.232;43.854;2023-11-21T01:47:57;99914.53;;;-4.22;70.66
73453;BME280;61687;56.232;43.854;2023-11-21T01:50:24;99919.09;;;-4.22;70.75
73453;BME280;61687;56.232;43.854;2023-11-21T01:52:50;99920.16;;;-4.23;70.97
73453;BME280;61687;56.232;43.854;2023-11-21T01:55:18;99925.25;;;-4.22;70.71
73453;BME280;61687;56.232;43.854;2023-11-21T01:57:45;99921.50;;;-4.26;70.88
73453;BME280;61687;56.232;43.854;2023-11-21T02:00:12;99919.66;;;-4.25;70.97
73453;BME280;61687;56.232;43.854;2023-11-21T02:02:48;99916.16;;;-4.21;71.12
73453;BME280;61687;56.232;43.854;2023-11-21T02:05:15;99919.84;;;-4.17;71.04
73453;BME280;61687;56.232;43.854;2023-11-21T02:07:43;99922.53;;;-4.17;70.82
73453;BME280;61687;56.232;43.854;2023-11-21T02:10:09;99926.81;;;-4.15;70.97
73453;BME280;61687;56.232;43.854;2023-11-21T02:12:37;99930.81;;;-4.18;70.96
73453;BME280;61687;56.232;43.854;2023-11-21T02:15:07;99933.88;;;-4.35;71.21
73453;BME280;61687;56.232;43.854;2023-11-21T02:17:42;99938.00;;;-4.53;71.68
73453;BME280;61687;56.232;43.854;2023-11-21T02:20:13;99939.84;;;-4.54;72.08
73453;BME280;61687;56.232;43.854;2023-11-21T02:22:50;99936.63;;;-4.46;72.05
73453;BME280;61687;56.232;43.854;2023-11-21T02:25:25;99938.41;;;-4.31;71.95
73453;BME280;61687;56.232;43.854;2023-11-21T02:27:51;99937.88;;;-4.33;71.91
73453;BME280;61687;56.232;43.854;2023-11-21T02:30:17;99933.63;;;-4.34;71.97
73453;BME280;61687;56.232;43.854;2023-11-21T02:32:45;99933.63;;;-4.39;72.25
73453;BME280;61687;56.232;43.854;2023-11-21T02:35:11;99934.41;;;-4.33;72.43
73453;BME280;61687;56.232;43.854;2023-11-21T02:37:37;99926.63;;;-4.29;72.49
73453;BME280;61687;56.232;43.854;2023-11-21T02:40:05;99929.22;;;-4.19;72.42
73453;BME280;61687;56.232;43.854;2023-11-21T02:42:35;99927.31;;;-4.13;72.34
73453;BME280;61687;56.232;43.854;2023-11-21T02:45:01;99931.84;;;-4.09;72.44
73453;BME280;61687;56.232;43.854;2023-11-21T02:47:29;99928.66;;;-4.11;72.39
73453;BME280;61687;56.232;43.854;2023-11-21T02:49:55;99926.25;;;-4.12;72.48
73453;BME280;61687;56.232;43.854;2023-11-21T02:52:21;99922.56;;;-4.22;72.53
73453;BME280;61687;56.232;43.854;2023-11-21T02:54:47;99928.31;;;-4.44;73.27
73453;BME280;61687;56.232;43.854;2023-11-21T02:57:13;99932.28;;;-4.36;73.29
73453;BME280;61687;56.232;43.854;2023-11-21T02:59:39;99933.06;;;-4.31;73.44
73453;BME280;61687;56.232;43.854;2023-11-21T03:02:05;99932.19;;;-4.21;73.28
73453;BME280;61687;56.232;43.854;2023-11-21T03:04:34;99917.97;;;-4.16;73.27
73453;BME280;61687;56.232;43.854;2023-11-21T03:07:00;99921.94;;;-4.08;73.29
73453;BME280;61687;56.232;43.854;2023-11-21T03:09:26;99914.78;;;-4.18;73.23
73453;BME280;61687;56.232;43.854;2023-11-21T03:11:54;99916.50;;;-4.33;73.64
73453;BME280;61687;56.232;43.854;2023-11-21T03:14:21;99908.50;;;-4.43;73.80
73453;BME280;61687;56.232;43.854;2023-11-21T03:16:48;99914.97;;;-4.49;74.11
73453;BME280;61687;56.232;43.854;2023-11-21T03:19:15;99908.50;;;-4.43;74.12
73453;BME280;61687;56.232;43.854;2023-11-21T03:21:41;99908.91;;;-4.70;74.82
73453;BME280;61687;56.232;43.854;2023-11-21T03:24:07;99906.56;;;-4.77;75.03
73453;BME280;61687;56.232;43.854;2023-11-21T03:26:33;99906.47;;;-4.62;75.10
73453;BME280;61687;56.232;43.854;2023-11-21T03:28:59;99913.41;;;-4.55;74.89
73453;BME280;61687;56.232;43.854;2023-11-21T03:31:25;99898.13;;;-4.50;74.84
73453;BME280;61687;56.232;43.854;2023-11-21T03:33:52;99897.56;;;-4.47;74.92
73453;BME280;61687;56.232;43.854;2023-11-21T03:36:19;99895.44;;;-4.44;74.66
73453;BME280;61687;56.232;43.854;2023-11-21T03:38:48;99902.69;;;-4.50;74.72
73453;BME280;61687;56.232;43.854;2023-11-21T03:41:15;99912.00;;;-4.42;74.75
73453;BME280;61687;56.232;43.854;2023-11-21T03:43:41;99906.88;;;-4.39;74.67
73453;BME280;61687;56.232;43.854;2023-11-21T03:46:07;99910.06;;;-4.37;74.58
73453;BME280;61687;56.232;43.854;2023-11-21T03:48:33;99902.03;;;-4.37;74.48
73453;BME280;61687;56.232;43.854;2023-11-21T03:50:59;99910.06;;;-4.32;74.49
73453;BME280;61687;56.232;43.854;2023-11-21T03:53:25;99912.69;;;-4.26;74.47
73453;BME280;61687;56.232;43.854;2023-11-21T03:55:51;99919.09;;;-4.22;74.23
73453;BME280;61687;56.232;43.854;2023-11-21T03:58:17;99919.91;;;-4.22;74.22
73453;BME280;61687;56.232;43.854;2023-11-21T04:00:43;99926.13;;;-4.32;74.32
73453;BME280;61687;56.232;43.854;2023-11-21T04:03:09;99929.09;;;-4.38;74.47
73453;BME280;61687;56.232;43.854;2023-11-21T04:05:35;99928.31;;;-4.44;74.55
73453;BME280;61687;56.232;43.854;2023-11-21T04:08:00;99926.16;;;-4.42;74.55
73453;BME280;61687;56.232;43.854;2023-11-21T04:10:26;99944.84;;;-4.37;74.49
73453;BME280;61687;56.232;43.854;2023-11-21T04:12:52;99932.06;;;-4.45;74.54
73453;BME280;61687;56.232;43.854;2023-11-21T04:15:18;99941.41;;;-4.42;74.52
73453;BME280;61687;56.232;43.854;2023-11-21T04:17:44;99935.00;;;-4.41;74.65
73453;BME280;61687;56.232;43.854;2023-11-21T04:20:11;99931.50;;;-4.42;74.37
73453;BME280;61687;56.232;43.854;2023-11-21T04:22:40;99938.97;;;-4.39;74.56
73453;BME280;61687;56.232;43.854;2023-11-21T04:25:08;99937.88;;;-4.33;74.41
73453;BME280;61687;56.232;43.854;2023-11-21T04:27:35;99937.03;;;-4.28;74.44
73453;BME280;61687;56.232;43.854;2023-11-21T04:30:02;99933.63;;;-4.34;74.28
73453;BME280;61687;56.232;43.854;2023-11-21T04:32:29;99937.38;;;-4.35;74.45
73453;BME280;61687;56.232;43.854;2023-11-21T04:34:55;99936.38;;;-4.49;74.50
73453;BME280;61687;56.232;43.854;2023-11-21T04:37:21;99934.69;;;-4.40;74.57
73453;BME280;61687;56.232;43.854;2023-11-21T04:39:47;99934.44;;;-4.38;74.61
73453;BME280;61687;56.232;43.854;2023-11-21T04:42:12;99936.56;;;-4.35;74.46
73453;BME280;61687;56.232;43.854;2023-11-21T04:44:39;99930.41;;;-4.36;74.38
73453;BME280;61687;56.232;43.854;2023-11-21T04:47:07;99930.19;;;-4.44;74.58
73453;BME280;61687;56.232;43.854;2023-11-21T04:49:33;99922.69;;;-4.42;74.63
73453;BME280;61687;56.232;43.854;2023-11-21T04:51:59;99936.59;;;-4.40;74.59
73453;BME280;61687;56.232;43.854;2023-11-21T04:54:25;99934.97;;;-4.36;74.66
73453;BME280;61687;56.232;43.854;2023-11-21T04:56:51;99923.81;;;-4.54;74.62
73453;BME280;61687;56.232;43.854;2023-11-21T04:59:17;99918.28;;;-4.68;75.14
73453;BME280;61687;56.232;43.854;2023-11-21T05:01:43;99918.53;;;-4.64;75.22
73453;BME280;61687;56.232;43.854;2023-11-21T05:04:09;99913.94;;;-4.58;75.22
73453;BME280;61687;56.232;43.854;2023-11-21T05:06:35;99914.47;;;-4.56;75.14
73453;BME280;61687;56.232;43.854;2023-11-21T05:09:01;99920.38;;;-4.65;75.28
73453;BME280;61687;56.232;43.854;2023-11-21T05:11:27;99923.56;;;-4.52;75.17
73453;BME280;61687;56.232;43.854;2023-11-21T05:13:54;99921.13;;;-4.54;75.19
73453;BME280;61687;56.232;43.854;2023-11-21T05:16:26;99922.22;;;-4.55;75.14
73453;BME280;61687;56.232;43.854;2023-11-21T05:18:53;99926.22;;;-4.52;75.24
73453;BME280;61687;56.232;43.854;2023-11-21T05:21:22;99939.06;;;-4.54;75.19
73453;BME280;61687;56.232;43.854;2023-11-21T05:23:48;99946.50;;;-4.46;75.06
73453;BME280;61687;56.232;43.854;2023-11-21T05:26:14;99946.09;;;-4.69;75.33
73453;BME280;61687;56.232;43.854;2023-11-21T05:28:40;99953.59;;;-4.76;75.32
73453;BME280;61687;56.232;43.854;2023-11-21T05:31:06;99965.38;;;-4.82;75.52
73453;BME280;61687;56.232;43.854;2023-11-21T05:33:31;99959.47;;;-4.79;75.59
73453;BME280;61687;56.232;43.854;2023-11-21T05:35:59;99951.22;;;-4.83;75.82
73453;BME280;61687;56.232;43.854;2023-11-21T05:38:25;99949.63;;;-4.84;75.65
73453;BME280;61687;56.232;43.854;2023-11-21T05:40:51;99950.94;;;-4.81;75.72
73453;BME280;61687;56.232;43.854;2023-11-21T05:43:17;99950.13;;;-4.77;75.69
73453;BME280;61687;56.232;43.854;2023-11-21T05:45:43;99954.09;;;-4.69;75.60
73453;BME280;61687;56.232;43.854;2023-11-21T05:48:09;99946.03;;;-4.58;75.34
73453;BME280;61687;56.232;43.854;2023-11-21T05:50:35;99945.78;;;-4.62;75.31
73453;BME280;61687;56.232;43.854;2023-11-21T05:53:01;99936.41;;;-4.60;75.15
73453;BME280;61687;56.232;43.854;2023-11-21T05:55:27;99923.50;;;-4.47;75.09
73453;BME280;61687;56.232;43.854;2023-11-21T05:57:53;99926.75;;;-4.50;74.78
73453;BME280;61687;56.232;43.854;2023-11-21T06:00:19;99936.03;;;-4.37;74.73
73453;BME280;61687;56.232;43.854;2023-11-21T06:02:49;99938.22;;;-4.50;74.61
73453;BME280;61687;56.232;43.854;2023-11-21T06:05:25;99942.28;;;-4.52;74.63
73453;BME280;61687;56.232;43.854;2023-11-21T06:07:55;99943.88;;;-4.51;74.83
73453;BME280;61687;56.232;43.854;2023-11-21T06:10:30;99948.09;;;-4.45;74.59
73453;BME280;61687;56.232;43.854;2023-11-21T06:12:56;99956.41;;;-4.41;74.41
73453;BME280;61687;56.232;43.854;2023-11-21T06:15:23;99958.13;;;-4.71;74.48
73453;BME280;61687;56.232;43.854;2023-11-21T06:17:51;99962.69;;;-4.77;75.05
73453;BME280;61687;56.232;43.854;2023-11-21T06:20:21;99962.44;;;-4.81;75.09
73453;BME280;61687;56.232;43.854;2023-11-21T06:22:49;99950.66;;;-4.80;75.29
73453;BME280;61687;56.232;43.854;2023-11-21T06:25:16;99947.19;;;-4.80;75.29
73453;BME280;61687;56.232;43.854;2023-11-21T06:27:45;99936.03;;;-4.93;75.39
73453;BME280;61687;56.232;43.854;2023-11-21T06:30:12;99939.16;;;-4.80;75.32
73453;BME280;61687;56.232;43.854;2023-11-21T06:32:39;99934.31;;;-4.68;75.18
73453;BME280;61687;56.232;43.854;2023-11-21T06:35:07;99929.13;;;-4.49;74.63
73453;BME280;61687;56.232;43.854;2023-11-21T06:37:34;99939.75;;;-4.33;74.40
73453;BME280;61687;56.232;43.854;2023-11-21T06:40:00;99949.00;;;-4.15;74.34
73453;BME280;61687;56.232;43.854;2023-11-21T06:42:27;99950.03;;;-4.06;74.02
73453;BME280;61687;56.232;43.854;2023-11-21T06:44:54;99954.69;;;-4.22;73.56
73453;BME280;61687;56.232;43.854;2023-11-21T06:47:23;99954.16;;;-4.24;73.82
73453;BME280;61687;56.232;43.854;2023-11-21T06:49:53;99956.06;;;-4.29;73.83
73453;BME280;61687;56.232;43.854;2023-11-21T06:52:19;99959.81;;;-4.31;73.60
73453;BME280;61687;56.232;43.854;2023-11-21T06:54:45;99956.63;;;-4.33;73.66
73453;BME280;61687;56.232;43.854;2023-11-21T06:57:13;99964.41;;;-4.41;74.01
73453;BME280;61687;56.232;43.854;2023-11-21T06:59:39;99958.00;;;-4.40;73.85
73453;BME280;61687;56.232;43.854;2023-11-21T07:02:05;99953.13;;;-4.33;73.70
73453;BME280;61687;56.232;43.854;2023-11-21T07:04:35;99949.84;;;-4.25;73.34
73453;BME280;61687;56.232;43.854;2023-11-21T07:07:03;99945.25;;;-4.14;73.13
73453;BME280;61687;56.232;43.854;2023-11-21T07:09:30;99948.59;;;-4.33;73.14
73453;BME280;61687;56.232;43.854;2023-11-21T07:11:57;99951.25;;;-4.33;73.02
73453;BME280;61687;56.232;43.854;2023-11-21T07:14:24;99951.44;;;-4.19;73.15
73453;BME280;61687;56.232;43.854;2023-11-21T07:16:50;99947.13;;;-4.14;72.48
73453;BME280;61687;56.232;43.854;2023-11-21T07:19:18;99948.81;;;-4.29;72.37
73453;BME280;61687;56.232;43.854;2023-11-21T07:21:45;99962.38;;;-4.15;72.44
73453;BME280;61687;56.232;43.854;2023-11-21T07:24:11;99961.63;;;-4.26;72.52
73453;BME280;61687;56.232;43.854;2023-11-21T07:26:37;99978.81;;;-4.32;72.64
73453;BME280;61687;56.232;43.854;2023-11-21T07:29:04;99986.84;;;-4.37;72.85
73453;BME280;61687;56.232;43.854;2023-11-21T07:31:32;99986.91;;;-4.48;73.01
73453;BME280;61687;56.232;43.854;2023-11-21T07:34:01;99992.75;;;-4.40;73.09
73453;BME280;61687;56.232;43.854;2023-11-21T07:36:27;99993.84;;;-4.47;73.07
73453;BME280;61687;56.232;43.854;2023-11-21T07:38:54;99991.88;;;-4.25;73.01
73453;BME280;61687;56.232;43.854;2023-11-21T07:41:20;99990.31;;;-4.32;72.64
73453;BME280;61687;56.232;43.854;2023-11-21T07:43:46;99998.41;;;-4.47;72.63
73453;BME280;61687;56.232;43.854;2023-11-21T07:46:13;99992.78;;;-4.51;73.07
73453;BME280;61687;56.232;43.854;2023-11-21T07:48:40;99996.84;;;-4.53;73.00
73453;BME280;61687;56.232;43.854;2023-11-21T07:51:08;99988.81;;;-4.58;73.05
73453;BME280;61687;56.232;43.854;2023-11-21T07:53:36;99984.47;;;-4.44;73.27
73453;BME280;61687;56.232;43.854;2023-11-21T07:56:04;99976.41;;;-4.34;73.17
73453;BME280;61687;56.232;43.854;2023-11-21T07:58:30;99984.41;;;-4.28;72.70
73453;BME280;61687;56.232;43.854;2023-11-21T08:00:57;99984.84;;;-4.11;72.38
73453;BME280;61687;56.232;43.854;2023-11-21T08:03:23;99991.78;;;-4.05;72.22
73453;BME280;61687;56.232;43.854;2023-11-21T08:05:49;99979.84;;;-3.83;72.15
73453;BME280;61687;56.232;43.854;2023-11-21T08:08:16;99988.66;;;-3.82;71.64
73453;BME280;61687;56.232;43.854;2023-11-21T08:10:45;99990.47;;;-3.67;71.63
73453;BME280;61687;56.232;43.854;2023-11-21T08:13:14;99986.41;;;-3.65;70.87
73453;BME280;61687;56.232;43.854;2023-11-21T08:15:43;99990.25;;;-3.76;70.99
73453;BME280;61687;56.232;43.854;2023-11-21T08:18:12;99993.75;;;-3.81;71.35
73453;BME280;61687;56.232;43.854;2023-11-21T08:20:40;99990.72;;;-4.09;71.39
73453;BME280;61687;56.232;43.854;2023-11-21T08:23:06;99993.19;;;-4.18;71.59
73453;BME280;61687;56.232;43.854;2023-11-21T08:25:32;99989.47;;;-4.22;71.83
73453;BME280;61687;56.232;43.854;2023-11-21T08:28:00;99988.19;;;-4.35;72.16
73453;BME280;61687;56.232;43.854;2023-11-21T08:30:27;99992.72;;;-4.35;72.02
73453;BME280;61687;56.232;43.854;2023-11-21T08:32:56;99994.69;;;-4.56;72.54
73453;BME280;61687;56.232;43.854;2023-11-21T08:35:24;99995.94;;;-4.33;72.43
73453;BME280;61687;56.232;43.854;2023-11-21T08:37:53;99999.72;;;-4.39;72.37
73453;BME280;61687;56.232;43.854;2023-11-21T08:40:19;100003.50;;;-4.46;72.38
73453;BME280;61687;56.232;43.854;2023-11-21T08:42:47;99991.97;;;-4.46;72.56
73453;BME280;61687;56.232;43.854;2023-11-21T08:45:15;99995.66;;;-4.37;72.24
73453;BME280;61687;56.232;43.854;2023-11-21T08:47:43;99998.94;;;-4.45;72.58
73453;BME280;61687;56.232;43.854;2023-11-21T08:50:10;99990.53;;;-4.28;72.21
73453;BME280;61687;56.232;43.854;2023-11-21T08:52:38;99996.75;;;-4.38;72.36
73453;BME280;61687;56.232;43.854;2023-11-21T08:55:09;99982.81;;;-4.29;72.37
73453;BME280;61687;56.232;43.854;2023-11-21T08:57:39;99993.56;;;-4.40;72.53
73453;BME280;61687;56.232;43.854;2023-11-21T09:00:09;99991.91;;;-4.36;72.33
73453;BME280;61687;56.232;43.854;2023-11-21T09:02:38;99993.00;;;-4.32;72.30
73453;BME280;61687;56.232;43.854;2023-11-21T09:05:05;99992.69;;;-4.30;71.99
73453;BME280;61687;56.232;43.854;2023-11-21T09:07:32;99998.06;;;-4.30;71.82
73453;BME280;61687;56.232;43.854;2023-11-21T09:09:58;100002.00;;;-4.17;72.10
73453;BME280;61687;56.232;43.854;2023-11-21T09:12:24;99994.81;;;-4.22;71.87
73453;BME280;61687;56.232;43.854;2023-11-21T09:14:50;99991.06;;;-4.26;71.90
73453;BME280;61687;56.232;43.854;2023-11-21T09:17:17;100011.75;;;-4.42;71.75
73453;BME280;61687;56.232;43.854;2023-11-21T09:19:43;100011.28;;;-4.54;72.49
73453;BME280;61687;56.232;43.854;2023-11-21T09:22:11;100012.88;;;-4.53;72.77
73453;BME280;61687;56.232;43.854;2023-11-21T09:24:37;100009.66;;;-4.50;72.57
73453;BME280;61687;56.232;43.854;2023-11-21T09:27:03;100008.31;;;-4.53;72.60
73453;BME280;61687;56.232;43.854;2023-11-21T09:29:31;100003.41;;;-4.30;72.51
73453;BME280;61687;56.232;43.854;2023-11-21T09:31:57;100002.75;;;-4.06;71.95
73453;BME280;61687;56.232;43.854;2023-11-21T09:34:27;99997.47;;;-4.17;71.92
73453;BME280;61687;56.232;43.854;2023-11-21T09:36:53;99995.78;;;-4.02;71.72
73453;BME280;61687;56.232;43.854;2023-11-21T09:39:19;99996.31;;;-4.00;71.69
73453;BME280;61687;56.232;43.854;2023-11-21T09:41:49;99992.44;;;-3.83;71.56
73453;BME280;61687;56.232;43.854;2023-11-21T09:44:26;99994.19;;;-4.08;71.33
73453;BME280;61687;56.232;43.854;2023-11-21T09:46:59;99992.09;;;-4.17;71.73
73453;BME280;61687;56.232;43.854;2023-11-21T09:49:26;99995.47;;;-4.00;71.91
73453;BME280;61687;56.232;43.854;2023-11-21T09:51:55;99984.25;;;-4.03;72.29
73453;BME280;61687;56.232;43.854;2023-11-21T09:54:24;99983.16;;;-3.96;72.00
73453;BME280;61687;56.232;43.854;2023-11-21T09:56:51;99991.91;;;-3.85;71.31
73453;BME280;61687;56.232;43.854;2023-11-21T09:59:17;99991.72;;;-3.99;71.43
73453;BME280;61687;56.232;43.854;2023-11-21T10:01:43;99979.38;;;-3.90;71.73
73453;BME280;61687;56.232;43.854;2023-11-21T10:04:09;99991.69;;;-3.89;71.23
73453;BME280;61687;56.232;43.854;2023-11-21T10:06:41;99986.13;;;-3.98;71.59
73453;BME280;61687;56.232;43.854;2023-11-21T10:09:10;99993.38;;;-4.04;71.87
73453;BME280;61687;56.232;43.854;2023-11-21T10:11:41;100002.00;;;-4.12;71.61
73453;BME280;61687;56.232;43.854;2023-11-21T10:14:11;99996.69;;;-4.22;72.29
73453;BME280;61687;56.232;43.854;2023-11-21T10:16:39;100000.16;;;-4.27;72.11
73453;BME280;61687;56.232;43.854;2023-11-21T10:19:09;99994.84;;;-4.32;72.30
73453;BME280;61687;56.232;43.854;2023-11-21T10:21:37;100009.03;;;-4.37;72.46
73453;BME280;61687;56.232;43.854;2023-11-21T10:24:04;100006.81;;;-4.19;72.01
73453;BME280;61687;56.232;43.854;2023-11-21T10:26:32;100006.34;;;-4.26;71.72
73453;BME280;61687;56.232;43.854;2023-11-21T10:28:59;100002.09;;;-4.33;71.84
73453;BME280;61687;56.232;43.854;2023-11-21T10:31:30;100001.56;;;-4.35;72.08
73453;BME280;61687;56.232;43.854;2023-11-21T10:34:14;99996.72;;;-4.27;71.81
73453;BME280;61687;56.232;43.854;2023-11-21T10:36:41;100000.41;;;-4.18;71.81
73453;BME280;61687;56.232;43.854;2023-11-21T10:39:07;100007.97;;;-4.31;71.96
73453;BME280;61687;56.232;43.854;2023-11-21T10:41:33;100001.44;;;-4.14;71.77
73453;BME280;61687;56.232;43.854;2023-11-21T10:44:02;100009.34;;;-4.38;71.87
73453;BME280;61687;56.232;43.854;2023-11-21T10:46:33;100020.09;;;-4.54;72.29
73453;BME280;61687;56.232;43.854;2023-11-21T10:48:59;100005.44;;;-4.67;72.97
73453;BME280;61687;56.232;43.854;2023-11-21T10:51:25;100007.28;;;-4.62;73.02
73453;BME280;61687;56.232;43.854;2023-11-21T10:53:52;100008.03;;;-4.46;72.74
73453;BME280;61687;56.232;43.854;2023-11-21T10:56:19;100023.84;;;-4.55;72.89
73453;BME280;61687;56.232;43.854;2023-11-21T10:58:49;100022.16;;;-4.35;72.73
73453;BME280;61687;56.232;43.854;2023-11-21T11:01:17;100019.97;;;-4.28;72.56
73453;BME280;61687;56.232;43.854;2023-11-21T11:03:44;100017.25;;;-4.18;72.28
73453;BME280;61687;56.232;43.854;2023-11-21T11:06:11;100020.44;;;-4.10;72.01
73453;BME280;61687;56.232;43.854;2023-11-21T11:08:38;100026.94;;;-4.27;71.86
73453;BME280;61687;56.232;43.854;2023-11-21T11:11:05;100025.09;;;-4.37;72.70
73453;BME280;61687;56.232;43.854;2023-11-21T11:13:32;100028.31;;;-4.35;73.11
73453;BME280;61687;56.232;43.854;2023-11-21T11:15:59;100014.09;;;-4.30;72.87
73453;BME280;61687;56.232;43.854;2023-11-21T11:18:30;100021.28;;;-4.20;72.42
73453;BME280;61687;56.232;43.854;2023-11-21T11:21:13;100011.16;;;-4.28;72.72
73453;BME280;61687;56.232;43.854;2023-11-21T11:34:35;100019.22;;;-3.89;71.84
73453;BME280;61687;56.232;43.854;2023-11-21T11:37:06;100019.00;;;-3.92;71.83
73453;BME280;61687;56.232;43.854;2023-11-21T11:39:41;100010.94;;;-3.87;71.62
73453;BME280;61687;56.232;43.854;2023-11-21T11:42:14;100011.00;;;-3.97;71.48
73453;BME280;61687;56.232;43.854;2023-11-21T11:50:00;100019.44;;;-4.30;73.06
73453;BME280;61687;56.232;43.854;2023-11-21T11:55:12;100019.28;;;-4.60;73.60
73453;BME280;61687;56.232;43.854;2023-11-21T11:57:40;100012.03;;;-4.49;73.82
73453;BME280;61687;56.232;43.854;2023-11-21T12:02:40;100016.53;;;-4.39;73.48
73453;BME280;61687;56.232;43.854;2023-11-21T12:05:14;100024.56;;;-4.39;73.36
73453;BME280;61687;56.232;43.854;2023-11-21T12:07:53;100017.94;;;-4.52;73.49
73453;BME280;61687;56.232;43.854;2023-11-21T12:10:40;100027.31;;;-4.60;73.78
73453;BME280;61687;56.232;43.854;2023-11-21T12:13:09;100020.41;;;-4.71;74.35
73453;BME280;61687;56.232;43.854;2023-11-21T12:15:39;100025.22;;;-4.68;74.30
73453;BME280;61687;56.232;43.854;2023-11-21T12:18:07;100019.81;;;-4.57;74.11
73453;BME280;61687;56.232;43.854;2023-11-21T12:20:33;100023.34;;;-4.62;73.86
73453;BME280;61687;56.232;43.854;2023-11-21T12:23:05;100020.66;;;-4.67;73.90
73453;BME280;61687;56.232;43.854;2023-11-21T12:25:32;100019.53;;;-4.46;73.64
73453;BME280;61687;56.232;43.854;2023-11-21T12:28:00;100027.31;;;-4.49;73.44
73453;BME280;61687;56.232;43.854;2023-11-21T12:30:30;100020.91;;;-4.53;73.44
73453;BME280;61687;56.232;43.854;2023-11-21T12:32:59;100022.75;;;-4.54;73.54
73453;BME280;61687;56.232;43.854;2023-11-21T12:35:29;100033.44;;;-4.49;73.70
73453;BME280;61687;56.232;43.854;2023-11-21T12:37:57;100023.22;;;-4.31;73.56
73453;BME280;61687;56.232;43.854;2023-11-21T12:40:23;100028.06;;;-4.38;73.46
73453;BME280;61687;56.232;43.854;2023-11-21T12:42:52;100029.38;;;-4.31;73.20
73453;BME280;61687;56.232;43.854;2023-11-21T12:45:20;100031.00;;;-4.35;73.08
73453;BME280;61687;56.232;43.854;2023-11-21T12:47:48;100025.84;;;-4.26;73.03
73453;BME280;61687;56.232;43.854;2023-11-21T12:50:21;100025.97;;;-4.52;73.21
73453;BME280;61687;56.232;43.854;2023-11-21T12:52:50;100027.78;;;-4.42;73.50
73453;BME280;61687;56.232;43.854;2023-11-21T12:55:18;100032.00;;;-4.25;73.00
73453;BME280;61687;56.232;43.854;2023-11-21T12:57:49;100040.53;;;-4.13;72.78
73453;BME280;61687;56.232;43.854;2023-11-21T13:00:18;100041.56;;;-4.09;72.36
73453;BME280;61687;56.232;43.854;2023-11-21T13:02:54;100046.97;;;-4.19;72.48
73453;BME280;61687;56.232;43.854;2023-11-21T13:05:29;100056.03;;;-4.15;72.43
73453;BME280;61687;56.232;43.854;2023-11-21T13:07:57;100053.94;;;-4.23;72.47
73453;BME280;61687;56.232;43.854;2023-11-21T13:10:24;100061.72;;;-4.22;72.33